Terminal Aerodrome Forecast
Issued by NWS

Home | Current Version | Previous Version | Text Only | Print | Product List | Glossary Off
Versions: 1 2 3 4 5 6 7 8 9 10 11 12 13

000
FTUS43 KMPX 271700
TAFRWF
TAF
KRWF 271725Z 2718/2818 31012G19KT 6SM -SHRA SCT050 BKN080
     FM272300 29008KT P6SM BKN070
     FM280600 27011G19KT P6SM BKN100
     FM281500 30018G24KT P6SM BKN015 OVC040=

USA.gov is the U.S. government's official web portal to all federal, state and local government web resources and services.